»·PEaware :: SWA611 KLAX-KSFO

SWA611 :: KLAX-KSFO

FLIGHT INFORMATION

Flight Status: Arrived
Operator:
Southwest Airlines
More flights by this operator :: More flights under this callsign
Pilot: Maximilliano F. (23467)
Aircraft: BOEING 737-800
(B738)
More flights by this aircraft type
Origin: KLAX Los Angeles Intl
United States
Destination: KSFO San Francisco Intl
United States
More flights between these airports :: More routes between these airports
Route: SUMMR1 STOKD SERFR SERFR3
File this flight plan on PilotEdge
Remarks: RMK / SIMBRIEF
Altitude:
(Current/Filed)
34,000ft
Speed:
(Current/Filed)
456kts
Departed: 24-Oct-19 09:03 PM
Arrived: 24-Oct-19 09:54 PM
Distance/Time
Traveled:
293nm/0:51
Distance/Time
To Go:
Arrived

Flight Plot

Page will automatically refresh every two minutes.

Flight plan parsing failed; only flown route is shown


Map Options




Map Legend


Flown Route
Filed Route
Departure Airport
Arrival Airport
Navaid (VOR, NDB)
Fix

Horizontal Profiles

Position Reports

Time Latitude Longitude Heading Altitude Ground
Speed
24-Oct-19 20:35 33.946934 -118.400612 262 121ft 0kts
24-Oct-19 20:36 33.946934 -118.400612 262 121ft 0kts
24-Oct-19 20:37 33.946934 -118.400612 262 121ft 0kts
24-Oct-19 20:38 33.946934 -118.400612 262 121ft 0kts
24-Oct-19 20:39 33.946934 -118.400612 262 121ft 0kts
24-Oct-19 20:40 33.946934 -118.400612 262 121ft 0kts
24-Oct-19 20:41 33.946934 -118.400612 262 121ft 0kts
24-Oct-19 20:42 33.946934 -118.400612 262 121ft 0kts
24-Oct-19 20:43 33.946934 -118.400612 262 121ft 0kts
24-Oct-19 20:44 33.946934 -118.400612 262 121ft 0kts
24-Oct-19 20:45 33.946934 -118.400612 262 121ft 0kts
24-Oct-19 20:46 33.946934 -118.400612 262 121ft 0kts
24-Oct-19 20:47 33.946934 -118.400612 262 121ft 0kts
24-Oct-19 20:48 33.946773 -118.400091 348 121ft 1kts
24-Oct-19 20:49 33.946672 -118.400083 357 121ft 0kts
24-Oct-19 20:50 33.946672 -118.400083 357 121ft 0kts
24-Oct-19 20:51 33.946672 -118.400083 357 121ft 0kts
24-Oct-19 20:52 33.946672 -118.400083 357 121ft 0kts
24-Oct-19 20:53 33.946891 -118.400098 355 121ft 6kts
24-Oct-19 20:54 33.948300 -118.400144 322 119ft 3kts
24-Oct-19 20:55 33.949151 -118.400562 60 119ft 5kts
24-Oct-19 20:56 33.949465 -118.399248 36 117ft 0kts
24-Oct-19 20:57 33.949465 -118.399248 36 117ft 0kts
24-Oct-19 20:58 33.949465 -118.399248 36 117ft 0kts
24-Oct-19 20:59 33.949465 -118.399248 36 117ft 0kts
24-Oct-19 21:00 33.949465 -118.399248 36 117ft 0kts
24-Oct-19 21:01 33.949813 -118.399105 5 117ft 7kts
24-Oct-19 21:02 33.949265 -118.410657 263 127ft 133kts
24-Oct-19 21:03 33.939949 -118.472088 255 1828ft 222kts
24-Oct-19 21:04 33.937945 -118.560031 267 4437ft 282kts
24-Oct-19 21:05 33.930981 -118.653019 265 7986ft 292kts
24-Oct-19 21:06 33.923122 -118.754372 265 10592ft 332kts
24-Oct-19 21:07 33.918091 -118.871508 272 13464ft 361kts
24-Oct-19 21:08 33.924427 -118.993517 284 16929ft 371kts
24-Oct-19 21:10 33.968590 -119.106316 304 20083ft 381kts
24-Oct-19 21:11 34.034987 -119.205925 323 23030ft 387kts
24-Oct-19 21:12 34.123150 -119.283615 327 25651ft 400kts
24-Oct-19 21:13 34.215469 -119.363094 326 28027ft 415kts
24-Oct-19 21:14 34.310562 -119.445224 326 30185ft 429kts
24-Oct-19 21:15 34.408343 -119.530952 321 32400ft 437kts
24-Oct-19 21:16 34.495024 -119.635537 316 34069ft 451kts
24-Oct-19 21:17 34.582775 -119.743641 316 34079ft 448kts
24-Oct-19 21:18 34.670019 -119.851420 316 34082ft 450kts
24-Oct-19 21:19 34.757504 -119.959869 316 34091ft 449kts
24-Oct-19 21:20 34.844914 -120.068556 316 34119ft 451kts
24-Oct-19 21:21 34.932269 -120.177528 315 34108ft 449kts
24-Oct-19 21:22 35.019170 -120.286282 315 34091ft 448kts
24-Oct-19 21:23 35.104959 -120.393081 318 34092ft 448kts
24-Oct-19 21:24 35.197362 -120.495556 319 34092ft 447kts
24-Oct-19 21:25 35.288821 -120.598278 318 34092ft 447kts
24-Oct-19 21:26 35.379437 -120.700347 318 34093ft 447kts
24-Oct-19 21:27 35.471097 -120.803923 318 34119ft 447kts
24-Oct-19 21:28 35.568809 -120.897326 323 34137ft 448kts
24-Oct-19 21:29 35.667965 -120.989401 323 34135ft 447kts
24-Oct-19 21:29 35.750708 -121.066491 323 34130ft 448kts
24-Oct-19 21:31 35.866130 -121.174373 323 34121ft 448kts
24-Oct-19 21:32 35.965357 -121.267443 323 34112ft 449kts
24-Oct-19 21:32 36.047551 -121.344770 323 34109ft 445kts
24-Oct-19 21:33 36.149795 -121.428205 328 34110ft 445kts
24-Oct-19 21:35 36.273062 -121.524435 328 31311ft 447kts
24-Oct-19 21:35 36.359329 -121.592039 327 28936ft 432kts
24-Oct-19 21:36 36.457167 -121.668937 326 26389ft 410kts
24-Oct-19 21:37 36.549778 -121.742156 326 24207ft 384kts
24-Oct-19 21:38 36.638686 -121.812532 326 21877ft 383kts
24-Oct-19 21:39 36.730701 -121.883391 334 19474ft 391kts
24-Oct-19 21:40 36.830586 -121.919191 347 17314ft 366kts
24-Oct-19 21:41 36.928108 -121.946291 347 14940ft 351kts
24-Oct-19 21:42 37.020335 -121.979695 342 12628ft 338kts
24-Oct-19 21:43 37.107104 -122.013604 343 10924ft 310kts
24-Oct-19 21:44 37.184057 -122.043699 343 9965ft 272kts
24-Oct-19 21:45 37.259402 -122.073205 343 8454ft 297kts
24-Oct-19 21:46 37.337564 -122.104022 343 6874ft 286kts
24-Oct-19 21:47 37.412053 -122.131676 345 5182ft 279kts
24-Oct-19 21:48 37.485776 -122.156805 346 3732ft 259kts
24-Oct-19 21:49 37.542556 -122.197777 308 3041ft 221kts
24-Oct-19 21:50 37.571852 -122.263824 299 1742ft 205kts
24-Oct-19 21:51 37.595470 -122.319807 298 742ft 163kts
24-Oct-19 21:52 37.616417 -122.369605 299 13ft 132kts
24-Oct-19 21:53 37.622389 -122.385925 207 33ft 12kts
24-Oct-19 21:54 37.620700 -122.384514 114 34ft 10kts
24-Oct-19 21:55 37.618229 -122.379670 154 33ft 19kts
24-Oct-19 21:56 37.614233 -122.381249 226 34ft 4kts
24-Oct-19 21:57 37.614463 -122.381919 320 34ft 0kts

Navigation Log

Ident Type
Flight plan parsing failed, navigation log unavailable